KPWA

Wiley Post Airport

Oklahoma City, Oklahoma, USA
METAR KPWA 180206Z 05011KT 10SM BKN029 28/23 A3003 RMK AO2 LTG DSNT S AND SW T02830233
Observed Flight Rules
Aug-18 @ 02:06 UTC (25 minutes ago) Marginal Visual Flight Rules
Wind Visibility Clouds
50° at 11 knots 10 miles
  • Broken at 2,900' AGL
Temperatures Readings
Current 28°C / 82°F
Dewpoint 23°C / 73°F
Humidity 74%
Altimeter 30.03" Hg
Pressure 1017 hPa
Elevation 397
METAR KPWA 180206Z 05011KT 10SM BKN029 28/23 A3003 RMK AO2 LTG DSNT S AND SW T02830233
Observed Flight Rules
Aug-18 @ 02:06 UTC
(25 minutes ago)
MVFR
Wind Visibility
50° at 11 knots 10 miles
Clouds
  • Broken at 2,900' AGL
Temperature Dewpoint
28°C / 82°F 23°C / 73°F
Humidity Altimeter Pressure
74% 30.03" Hg 1017 hPa